Terminal Aerodrome Forecast
Issued by NWS

Home | Current Version | Previous Version | Text Only | Print | Product List | Glossary On
Versions: 1 2 3 4 5 6 7 8 9 10 11 12 13 14 15 16 17 18 19
639
FTUS41 KPBZ 261003 AAA
TAFFKL
TAF AMD
KFKL 261003Z 2610/2706 VRB03KT 5SM BR SCT050
     FM261300 29004KT P6SM SCT050
      AMD LTD TO CLD VIS AND WIND=

USA.gov is the U.S. government's official web portal to all federal, state and local government web resources and services.